createdAt,value
2016-02-20T00:00:58.326Z,74.4
2016-02-20T00:01:58.329Z,74.4
2016-02-20T00:02:58.378Z,74.02
2016-02-20T00:03:58.319Z,74.21
2016-02-20T00:04:58.153Z,73.64
2016-02-20T00:05:58.306Z,73.2
2016-02-20T00:06:58.309Z,73.35
2016-02-20T00:07:58.296Z,73.16
2016-02-20T00:08:58.283Z,73.01
2016-02-20T00:09:58.286Z,73.2
2016-02-20T00:10:58.273Z,73.58
2016-02-20T00:11:58.260Z,73.54
2016-02-20T00:12:58.263Z,73.54
2016-02-20T00:13:58.266Z,73.49
2016-02-20T00:14:58.252Z,73.58
2016-02-20T00:15:58.240Z,73.96
2016-02-20T00:16:58.243Z,73.45
2016-02-20T00:17:58.246Z,73.39
2016-02-20T00:18:58.232Z,73.83
2016-02-20T00:19:58.235Z,73.01
2016-02-20T00:20:58.238Z,73.26
2016-02-20T00:21:58.210Z,74.24
2016-02-20T00:22:58.243Z,74.02
2016-02-20T00:23:58.215Z,74.11
2016-02-20T00:24:58.201Z,73.83
2016-02-20T00:25:58.204Z,74.11
2016-02-20T00:26:58.206Z,74.4
2016-02-20T00:27:58.194Z,74.87
2016-02-20T00:28:58.196Z,74.11
2016-02-20T00:29:58.168Z,73.83
2016-02-20T00:30:58.176Z,74.02
2016-02-20T00:31:58.179Z,74.02
2016-02-20T00:32:58.165Z,74.21
2016-02-20T00:33:58.168Z,74.58
2016-02-20T00:34:58.171Z,74.62
2016-02-20T00:35:58.142Z,74.96
2016-02-20T00:36:58.144Z,74.87
2016-02-20T00:37:58.132Z,74.96
2016-02-20T00:38:58.150Z,74.58
2016-02-20T00:39:58.153Z,74.96
2016-02-20T00:40:58.124Z,74.58
2016-02-20T00:41:58.127Z,75.43
2016-02-20T00:42:58.114Z,75.62
2016-02-20T00:43:58.117Z,75.15
2016-02-20T00:44:58.104Z,75.53
2016-02-20T00:45:58.107Z,75.91
2016-02-20T00:46:58.093Z,75.91
2016-02-20T00:47:58.097Z,75.62
2016-02-20T00:48:58.083Z,76
2016-02-20T00:49:58.085Z,75.91
2016-02-20T00:50:58.088Z,76.19
2016-02-20T00:51:58.076Z,75.81
2016-02-20T00:52:58.062Z,75.91
2016-02-20T00:53:58.065Z,76.67
2016-02-20T00:54:58.069Z,76.67
2016-02-20T00:55:58.040Z,76.76
2016-02-20T00:56:58.059Z,76.48
2016-02-20T00:57:58.029Z,76.86
2016-02-20T00:58:58.048Z,77.23
2016-02-20T00:59:58.019Z,77.14
2016-02-20T01:00:58.006Z,77.14
2016-02-20T01:01:58.025Z,77.61
2016-02-20T01:02:58.011Z,77.7
2016-02-20T01:03:58.015Z,78.08
2016-02-20T01:04:58.001Z,77.89
2016-02-20T01:05:58.003Z,77.8
2016-02-20T01:06:57.992Z,77.51
2016-02-20T01:07:57.978Z,78.08
2016-02-20T01:08:57.965Z,77.61
2016-02-20T01:09:57.984Z,77.51
2016-02-20T01:10:57.955Z,77.8
2016-02-20T01:11:57.958Z,78.27
2016-02-20T01:12:57.961Z,78.94
2016-02-20T01:13:57.964Z,78.56
2016-02-20T01:14:57.935Z,78.65
2016-02-20T01:15:57.952Z,78.65
2016-02-20T01:16:57.940Z,78.75
2016-02-20T01:17:57.944Z,78.65
2016-02-20T01:18:57.914Z,78.37
2016-02-20T01:19:57.916Z,77.89
2016-02-20T01:20:57.956Z,78.37
2016-02-20T01:21:57.896Z,78.61
2016-02-20T01:22:57.899Z,78.33
2016-02-20T01:23:57.902Z,78.9
2016-02-20T01:24:57.888Z,78.8
2016-02-20T01:25:57.875Z,79.09
2016-02-20T01:26:57.893Z,79.18
2016-02-20T01:27:57.881Z,78.8
2016-02-20T01:28:57.850Z,78.99
2016-02-20T01:29:57.868Z,78.71
2016-02-20T01:30:57.855Z,78.9
2016-02-20T01:31:57.858Z,79.28
2016-02-20T01:32:57.845Z,78.99
2016-02-20T01:33:57.831Z,79.37
2016-02-20T01:34:57.834Z,79.28
2016-02-20T01:35:57.836Z,79.18
2016-02-20T01:36:57.808Z,79.09
2016-02-20T01:37:57.811Z,79.18
2016-02-20T01:38:57.798Z,79.37
2016-02-20T01:39:57.786Z,79.75
2016-02-20T01:40:57.789Z,79.28
2016-02-20T01:41:57.791Z,79.37
2016-02-20T01:42:57.778Z,79.28
2016-02-20T01:43:57.780Z,79.18
2016-02-20T01:44:57.783Z,78.8
2016-02-20T01:45:57.754Z,79.37
2016-02-20T01:46:57.757Z,79.85
2016-02-20T01:47:57.744Z,80.13
2016-02-20T01:48:57.747Z,79.85
2016-02-20T01:49:57.749Z,79.85
2016-02-20T01:50:57.737Z,79.75
2016-02-20T01:51:57.724Z,80.41
2016-02-20T01:52:57.726Z,80.32
2016-02-20T01:53:57.713Z,80.51
2016-02-20T01:54:57.701Z,80.22
2016-02-20T01:55:57.704Z,79.94
2016-02-20T01:56:57.690Z,80.32
2016-02-20T01:57:57.693Z,80.41
2016-02-20T01:58:57.696Z,80.32
2016-02-20T01:59:57.683Z,80.51
2016-02-20T02:00:57.670Z,80.22
2016-02-20T02:01:57.672Z,79.94
2016-02-20T02:02:57.676Z,79.85
2016-02-20T02:03:57.662Z,79.85
2016-02-20T02:04:57.647Z,79.94
2016-02-20T02:05:57.650Z,80.32
2016-02-20T02:06:57.637Z,81.17
2016-02-20T02:07:57.623Z,81.17
2016-02-20T02:08:57.657Z,81.17
2016-02-20T02:09:57.628Z,80.79
2016-02-20T02:10:57.631Z,81.26
2016-02-20T02:11:57.619Z,80.88
2016-02-20T02:12:57.606Z,80.41
2016-02-20T02:13:57.593Z,80.04
2016-02-20T02:14:57.596Z,80.22
2016-02-20T02:15:57.583Z,79.94
2016-02-20T02:16:57.585Z,79.75
2016-02-20T02:17:57.588Z,79.66
2016-02-20T02:18:57.574Z,79.94
2016-02-20T02:19:57.562Z,79.66
2016-02-20T02:20:57.565Z,79.75
2016-02-20T02:21:57.552Z,79.09
2016-02-20T02:22:57.538Z,79.09
2016-02-20T02:23:57.541Z,79.09
2016-02-20T02:24:57.544Z,78.8
2016-02-20T02:25:57.546Z,79.09
2016-02-20T02:26:57.518Z,78.33
2016-02-20T02:27:57.506Z,78.9
2016-02-20T02:28:57.508Z,78.61
2016-02-20T02:29:57.495Z,78.52
2016-02-20T02:30:57.514Z,78.23
2016-02-20T02:31:57.500Z,78.33
2016-02-20T02:32:57.487Z,78.14
2016-02-20T02:33:57.475Z,78.23
2016-02-20T02:34:57.478Z,77.86
2016-02-20T02:35:57.480Z,77.7
2016-02-20T02:36:57.467Z,77.89
2016-02-20T02:37:57.469Z,77.1
2016-02-20T02:38:57.456Z,77.33
2016-02-20T02:39:57.444Z,77.33
2016-02-20T02:40:57.430Z,77.42
2016-02-20T02:41:57.433Z,77.14
2016-02-20T02:42:57.436Z,77.14
2016-02-20T02:43:57.424Z,76.57
2016-02-20T02:44:57.427Z,76.76
2016-02-20T02:45:57.429Z,76.95
2016-02-20T02:46:57.416Z,77.23
2016-02-20T02:47:57.402Z,77.89
2016-02-20T02:48:57.390Z,77.33
2016-02-20T02:49:57.393Z,76.95
2016-02-20T02:50:57.379Z,76.67
2016-02-20T02:51:57.382Z,76.95
2016-02-20T02:52:57.369Z,76.76
2016-02-20T02:53:57.356Z,76.86
2016-02-20T02:54:57.360Z,76.86
2016-02-20T02:55:57.362Z,76.95
2016-02-20T02:56:57.349Z,77.04
2016-02-20T02:57:57.337Z,77.7
2016-02-20T02:58:57.339Z,77.51
2016-02-20T02:59:57.326Z,78.18
2016-02-20T03:00:57.329Z,78.08
2016-02-20T03:01:57.316Z,78.14
2016-02-20T03:02:57.318Z,78.37
2016-02-20T03:03:57.320Z,78.23
2016-02-20T03:04:57.292Z,78.42
2016-02-20T03:05:57.295Z,78.71
2016-02-20T03:06:57.281Z,78.52
2016-02-20T03:07:57.285Z,78.61
2016-02-20T03:08:57.272Z,78.42
2016-02-20T03:09:57.275Z,78.14
2016-02-20T03:10:57.277Z,78.61
2016-02-20T03:11:57.264Z,78.52
2016-02-20T03:12:57.252Z,78.99
2016-02-20T03:13:57.254Z,79.09
2016-02-20T03:14:57.242Z,78.9
2016-02-20T03:15:57.243Z,79.09
2016-02-20T03:16:57.247Z,78.99
2016-02-20T03:17:57.233Z,78.99
2016-02-20T03:18:57.221Z,79.09
2016-02-20T03:19:57.223Z,78.52
2016-02-20T03:20:57.210Z,79.47
2016-02-20T03:21:57.213Z,79.09
2016-02-20T03:22:57.215Z,78.71
2016-02-20T03:23:57.202Z,78.8
2016-02-20T03:24:57.191Z,78.9
2016-02-20T03:25:57.193Z,78.9
2016-02-20T03:26:57.180Z,78.9
2016-02-20T03:27:57.183Z,79.09
2016-02-20T03:28:57.170Z,78.8
2016-02-20T03:29:57.172Z,79.18
2016-02-20T03:30:57.160Z,79.56
2016-02-20T03:31:57.161Z,79.47
2016-02-20T03:32:57.148Z,78.9
2016-02-20T03:33:57.136Z,78.61
2016-02-20T03:34:57.123Z,79.47
2016-02-20T03:35:57.126Z,78.8
2016-02-20T03:36:57.129Z,78.71
2016-02-20T03:37:57.115Z,78.71
2016-02-20T03:38:57.118Z,78.99
2016-02-20T03:39:57.105Z,79.09
2016-02-20T03:40:57.109Z,78.8
2016-02-20T03:41:57.095Z,79.28
2016-02-20T03:42:57.098Z,78.71
2016-02-20T03:43:57.100Z,79.09
2016-02-20T03:44:57.088Z,78.71
2016-02-20T03:45:57.075Z,79.28
2016-02-20T03:46:57.077Z,79.28
2016-02-20T03:47:57.064Z,79.94
2016-02-20T03:48:57.083Z,79.47
2016-02-20T03:49:57.055Z,79.56
2016-02-20T03:50:57.572Z,79.94
2016-02-20T03:51:57.043Z,79.85
2016-02-20T03:52:57.031Z,79.94
2016-02-20T03:53:57.049Z,79.94
2016-02-20T03:54:57.021Z,79.85
2016-02-20T03:55:57.024Z,79.94
2016-02-20T03:56:57.026Z,79.75
2016-02-20T03:57:57.013Z,79.56
2016-02-20T03:58:57.015Z,79.75
2016-02-20T03:59:57.003Z,79.94
2016-02-20T04:00:56.990Z,79.56
2016-02-20T04:01:56.993Z,79.09
2016-02-20T04:02:56.980Z,78.71
2016-02-20T04:03:56.982Z,78.99
2016-02-20T04:04:56.970Z,78.8
2016-02-20T04:05:56.972Z,79.18
2016-02-20T04:06:56.990Z,79.09
2016-02-20T04:07:56.946Z,78.9
2016-02-20T04:08:56.949Z,78.52
2016-02-20T04:09:56.937Z,78.61
2016-02-20T04:10:56.939Z,78.9
2016-02-20T04:11:56.942Z,78.71
2016-02-20T04:12:56.928Z,78.61
2016-02-20T04:13:56.947Z,78.61
2016-02-20T04:14:56.934Z,78.71
2016-02-20T04:15:56.921Z,78.52
2016-02-20T04:16:56.908Z,78.61
2016-02-20T04:17:56.895Z,78.61
2016-02-20T04:18:56.898Z,78.61
2016-02-20T04:19:56.900Z,78.42
2016-02-20T04:20:56.888Z,78.71
2016-02-20T04:21:56.875Z,78.71
2016-02-20T04:22:56.877Z,78.71
2016-02-20T04:23:56.864Z,78.9
2016-02-20T04:24:56.852Z,78.99
2016-02-20T04:25:56.869Z,78.52
2016-02-20T04:26:56.857Z,78.42
2016-02-20T04:27:56.843Z,77.76
2016-02-20T04:28:56.832Z,78.37
2016-02-20T04:29:56.834Z,78.14
2016-02-20T04:30:56.837Z,78.37
2016-02-20T04:31:56.823Z,78.37
2016-02-20T04:32:56.826Z,78.23
2016-02-20T04:33:56.813Z,78.23
2016-02-20T04:34:56.816Z,78.71
2016-02-20T04:35:56.803Z,78.9
2016-02-20T04:36:56.806Z,78.23
2016-02-20T04:37:56.792Z,77.99
2016-02-20T04:38:56.812Z,77.7
2016-02-20T04:39:56.782Z,77.7
2016-02-20T04:40:56.785Z,77.89
2016-02-20T04:41:56.773Z,77.7
2016-02-20T04:42:56.775Z,76.76
2016-02-20T04:43:56.762Z,76.57
2016-02-20T04:44:56.781Z,75.91
2016-02-20T04:45:56.753Z,75.72
2016-02-20T04:46:56.739Z,75.62
2016-02-20T04:47:56.741Z,75.43
2016-02-20T04:48:56.729Z,75.24
2016-02-20T04:49:56.731Z,75.43
2016-02-20T04:50:56.734Z,74.77
2016-02-20T04:51:56.722Z,74.68
2016-02-20T04:52:56.708Z,74.87
2016-02-20T04:53:56.711Z,73.83
2016-02-20T04:54:56.713Z,73.45
2016-02-20T04:55:56.700Z,73.54
2016-02-20T04:56:56.688Z,73.64
2016-02-20T04:57:56.691Z,73.73
2016-02-20T04:58:56.677Z,73.64
2016-02-20T04:59:56.711Z,73.45
2016-02-20T05:00:56.668Z,73.64
2016-02-20T05:01:56.671Z,73.54
2016-02-20T05:02:56.657Z,73.64
2016-02-20T05:03:56.660Z,73.92
2016-02-20T05:04:56.647Z,73.73
2016-02-20T05:05:56.649Z,73.45
2016-02-20T05:06:56.652Z,73.73
2016-02-20T05:07:56.639Z,72.78
2016-02-20T05:08:56.626Z,72.92
2016-02-20T05:09:56.628Z,73.16
2016-02-20T05:10:56.615Z,73.07
2016-02-20T05:11:56.619Z,73.2
2016-02-20T05:12:56.606Z,72.44
2016-02-20T05:13:56.608Z,72.63
2016-02-20T05:14:56.612Z,72.53
2016-02-20T05:15:56.598Z,71.97
2016-02-20T05:16:56.586Z,72.82
2016-02-20T05:17:56.588Z,72.82
2016-02-20T05:18:56.575Z,72.44
2016-02-20T05:19:56.578Z,72.06
2016-02-20T05:20:56.580Z,71.78
2016-02-20T05:21:56.568Z,71.88
2016-02-20T05:22:56.570Z,71.88
2016-02-20T05:23:56.557Z,72.34
2016-02-20T05:24:56.545Z,72.34
2016-02-20T05:25:56.547Z,72.25
2016-02-20T05:26:56.550Z,72.25
2016-02-20T05:27:56.536Z,71.78
2016-02-20T05:28:56.539Z,71.97
2016-02-20T05:29:56.527Z,71.78
2016-02-20T05:30:56.529Z,71.21
2016-02-20T05:31:56.516Z,71.02
2016-02-20T05:32:56.519Z,71.5
2016-02-20T05:33:56.506Z,71.21
2016-02-20T05:34:56.509Z,71.4
2016-02-20T05:35:56.496Z,71.21
2016-02-20T05:36:56.498Z,70.83
2016-02-20T05:37:56.485Z,71.02
2016-02-20T05:38:56.488Z,70.83
2016-02-20T05:39:56.476Z,70.45
2016-02-20T05:40:56.478Z,70.93
2016-02-20T05:41:56.465Z,71.5
2016-02-20T05:42:56.484Z,71.4
2016-02-20T05:43:56.470Z,70.93
2016-02-20T05:44:56.473Z,70.45
2016-02-20T05:45:56.460Z,70.83
2016-02-20T05:46:56.447Z,69.89
2016-02-20T05:47:56.450Z,70.17
2016-02-20T05:48:56.452Z,69.7
2016-02-20T05:49:56.440Z,69.13
2016-02-20T05:50:56.442Z,69.13
2016-02-20T05:51:56.430Z,69.22
2016-02-20T05:52:56.417Z,69.51
2016-02-20T05:53:56.419Z,69.79
2016-02-20T05:54:56.406Z,69.98
2016-02-20T05:55:56.409Z,69.79
2016-02-20T05:56:56.412Z,69.79
2016-02-20T05:57:56.414Z,69.89
2016-02-20T05:58:56.401Z,69.89
2016-02-20T05:59:56.404Z,68.94
2016-02-20T06:00:56.391Z,69.79
2016-02-20T06:01:56.377Z,69.7
2016-02-20T06:02:56.381Z,69.89
2016-02-20T06:03:56.743Z,69.98
2016-02-20T06:04:56.371Z,69.79
2016-02-20T06:05:56.373Z,69.03
2016-02-20T06:06:56.391Z,69.13
2016-02-20T06:07:56.363Z,69.45
2016-02-20T06:08:56.350Z,68.88
2016-02-20T06:09:56.353Z,68.98
2016-02-20T06:10:56.356Z,68.84
2016-02-20T06:11:56.342Z,68.84
2016-02-20T06:12:56.330Z,68.69
2016-02-20T06:13:56.332Z,69.26
2016-02-20T06:14:56.335Z,68.98
2016-02-20T06:15:56.322Z,69.64
2016-02-20T06:16:56.309Z,69.26
2016-02-20T06:17:56.312Z,69.64
2016-02-20T06:18:56.314Z,69.26
2016-02-20T06:19:56.301Z,69.35
2016-02-20T06:20:56.304Z,69.17
2016-02-20T06:21:56.291Z,68.98
2016-02-20T06:22:56.294Z,68.31
2016-02-20T06:23:56.297Z,68.88
2016-02-20T06:24:56.284Z,68.12
2016-02-20T06:25:56.286Z,68.21
2016-02-20T06:26:56.274Z,68.12
2016-02-20T06:27:56.277Z,68.31
2016-02-20T06:28:56.279Z,68.12
2016-02-20T06:29:56.266Z,68.69
2016-02-20T06:30:56.269Z,68.5
2016-02-20T06:31:56.272Z,68.31
2016-02-20T06:32:56.258Z,68.98
2016-02-20T06:33:56.246Z,68.88
2016-02-20T06:34:56.248Z,68.59
2016-02-20T06:35:56.251Z,68.79
2016-02-20T06:36:56.237Z,68.98
2016-02-20T06:37:56.225Z,68.79
2016-02-20T06:38:56.227Z,69.35
2016-02-20T06:39:56.215Z,68.98
2016-02-20T06:40:56.217Z,69.17
2016-02-20T06:41:56.220Z,69.17
2016-02-20T06:42:56.207Z,69.45
2016-02-20T06:43:56.210Z,69.82
2016-02-20T06:44:56.198Z,69.35
2016-02-20T06:45:56.200Z,69.07
2016-02-20T06:46:56.202Z,69.17
2016-02-20T06:47:56.189Z,69.92
2016-02-20T06:48:56.192Z,69.07
2016-02-20T06:49:56.179Z,69.07
2016-02-20T06:50:56.181Z,69.82
2016-02-20T06:51:56.169Z,69.92
2016-02-20T06:52:56.172Z,69.26
2016-02-20T06:53:56.158Z,69.26
2016-02-20T06:54:56.162Z,69.07
2016-02-20T06:55:56.148Z,69.92
2016-02-20T06:56:56.151Z,69.17
2016-02-20T06:57:56.153Z,69.45
2016-02-20T06:58:56.141Z,69.73
2016-02-20T06:59:56.144Z,69.73
2016-02-20T07:00:56.146Z,69.07
2016-02-20T07:01:56.133Z,69.92
2016-02-20T07:02:56.136Z,69.82
2016-02-20T07:03:56.138Z,69.17
2016-02-20T07:04:56.141Z,69.07
2016-02-20T07:05:56.129Z,68.79
2016-02-20T07:06:56.115Z,68.88
2016-02-20T07:07:56.118Z,68.69
2016-02-20T07:08:56.104Z,69.17
2016-02-20T07:09:56.108Z,69.26
2016-02-20T07:10:56.110Z,69.17
2016-02-20T07:11:56.097Z,69.35
2016-02-20T07:12:56.101Z,68.88
2016-02-20T07:13:56.103Z,69.35
2016-02-20T07:14:56.106Z,69.82
2016-02-20T07:15:56.093Z,69.07
2016-02-20T07:16:56.079Z,70.01
2016-02-20T07:17:56.067Z,69.45
2016-02-20T07:18:56.069Z,69.26
2016-02-20T07:19:56.073Z,69.26
2016-02-20T07:20:56.090Z,70.01
2016-02-20T07:21:56.077Z,69.29
2016-02-20T07:22:56.049Z,69.73
2016-02-20T07:23:56.052Z,69.17
2016-02-20T07:24:56.055Z,70.05
2016-02-20T07:25:56.042Z,70.39
2016-02-20T07:26:56.044Z,70.05
2016-02-20T07:27:56.047Z,69.86
2016-02-20T07:28:56.033Z,70.24
2016-02-20T07:29:56.037Z,70.11
2016-02-20T07:30:56.024Z,70.24
2016-02-20T07:31:56.026Z,70.43
2016-02-20T07:32:56.029Z,70.05
2016-02-20T07:33:56.016Z,69.96
2016-02-20T07:34:56.035Z,69.67
2016-02-20T07:35:56.005Z,70.05
2016-02-20T07:36:55.994Z,70.72
2016-02-20T07:37:55.996Z,70.81
2016-02-20T07:38:55.998Z,70.53
2016-02-20T07:39:55.985Z,72.23
2016-02-20T07:40:55.988Z,71.28
2016-02-20T07:41:55.975Z,71.57
2016-02-20T07:42:55.978Z,71.95
2016-02-20T07:43:55.981Z,72.99
2016-02-20T07:44:55.968Z,72.96
2016-02-20T07:45:55.970Z,72.77
2016-02-20T07:46:55.957Z,73.05
2016-02-20T07:47:55.960Z,72.77
2016-02-20T07:48:55.962Z,73.24
2016-02-20T07:49:55.965Z,74.09
2016-02-20T07:50:56.000Z,74.66
2016-02-20T07:51:55.939Z,75.32
2016-02-20T07:52:55.942Z,75.79
2016-02-20T07:53:55.944Z,75.6
2016-02-20T07:54:55.948Z,75.79
2016-02-20T07:55:55.919Z,75.42
2016-02-20T07:56:55.922Z,75.6
2016-02-20T07:57:55.925Z,76.65
2016-02-20T07:58:55.927Z,77.88
2016-02-20T07:59:55.914Z,77.5
2016-02-20T08:00:55.916Z,78.26
2016-02-20T08:01:55.904Z,77.4
2016-02-20T08:02:55.907Z,77.22
2016-02-20T08:03:55.909Z,77.88
2016-02-20T08:04:55.913Z,78.35
2016-02-20T08:05:55.899Z,78.45
2016-02-20T08:06:55.886Z,78.54
2016-02-20T08:07:55.905Z,78.83
2016-02-20T08:08:55.876Z,79.11
2016-02-20T08:09:55.878Z,78.92
2016-02-20T08:10:55.882Z,78.16
2016-02-20T08:11:55.884Z,78.35
2016-02-20T08:12:55.871Z,78.92
2016-02-20T08:13:55.857Z,79.39
2016-02-20T08:14:55.860Z,79.21
2016-02-20T08:15:55.848Z,79.3
2016-02-20T08:16:55.850Z,79.39
2016-02-20T08:17:55.854Z,78.92
2016-02-20T08:18:55.840Z,78.92
2016-02-20T08:19:55.842Z,79.87
2016-02-20T08:20:55.845Z,79.96
2016-02-20T08:21:55.833Z,79.02
2016-02-20T08:22:55.836Z,79.3
2016-02-20T08:23:55.822Z,79.39
2016-02-20T08:24:55.825Z,79.39
2016-02-20T08:25:55.828Z,80.34
2016-02-20T08:26:55.814Z,79.77
2016-02-20T08:27:55.818Z,80.06
2016-02-20T08:28:55.805Z,79.87
2016-02-20T08:29:55.807Z,80.63
2016-02-20T08:30:55.794Z,80.34
2016-02-20T08:31:55.797Z,80.25
2016-02-20T08:32:55.800Z,80.63
2016-02-20T08:33:55.802Z,80.63
2016-02-20T08:34:55.789Z,80.06
2016-02-20T08:35:55.792Z,80.53
2016-02-20T08:36:55.763Z,80.34
2016-02-20T08:37:55.767Z,79.96
2016-02-20T08:38:55.783Z,80.44
2016-02-20T08:39:55.775Z,80.53
2016-02-20T08:40:55.751Z,79.87
2016-02-20T08:41:55.727Z,80.44
2016-02-20T08:42:55.702Z,80.91
2016-02-20T08:43:55.711Z,80.25
2016-02-20T08:44:55.693Z,81.2
2016-02-20T08:45:55.676Z,81.29
2016-02-20T08:46:55.674Z,81.1
2016-02-20T08:47:55.657Z,80.34
2016-02-20T08:48:55.656Z,81.2
2016-02-20T08:49:55.658Z,81.01
2016-02-20T08:50:55.643Z,81.57
2016-02-20T08:51:55.644Z,81.29
2016-02-20T08:52:55.629Z,81.01
2016-02-20T08:53:55.616Z,81.01
2016-02-20T08:54:55.618Z,81.01
2016-02-20T08:55:55.620Z,80.06
2016-02-20T08:56:55.607Z,80.34
2016-02-20T08:57:55.609Z,81.2
2016-02-20T08:58:55.611Z,80.44
2016-02-20T08:59:55.599Z,80.38
2016-02-20T09:00:55.585Z,81.1
2016-02-20T09:01:55.603Z,81.05
2016-02-20T09:02:55.590Z,80.29
2016-02-20T09:03:55.576Z,80.95
2016-02-20T09:04:55.579Z,80.38
2016-02-20T09:05:55.566Z,81.52
2016-02-20T09:06:55.569Z,81.14
2016-02-20T09:07:55.572Z,81.14
2016-02-20T09:08:55.575Z,80.38
2016-02-20T09:09:55.577Z,81.43
2016-02-20T09:10:55.564Z,81.99
2016-02-20T09:11:55.551Z,81.05
2016-02-20T09:12:55.553Z,80.57
2016-02-20T09:13:55.540Z,81.14
2016-02-20T09:14:55.544Z,81.52
2016-02-20T09:15:55.546Z,81.24
2016-02-20T09:16:55.549Z,80.86
2016-02-20T09:17:55.535Z,81.24
2016-02-20T09:18:55.523Z,81.81
2016-02-20T09:19:55.526Z,81.24
2016-02-20T09:20:55.528Z,80
2016-02-20T09:21:55.515Z,79.91
2016-02-20T09:22:55.518Z,80.48
2016-02-20T09:23:55.520Z,80.38
2016-02-20T09:24:55.508Z,80.48
2016-02-20T09:25:55.510Z,79.91
2016-02-20T09:26:55.497Z,79.82
2016-02-20T09:27:55.501Z,80
2016-02-20T09:28:55.503Z,80.1
2016-02-20T09:29:55.506Z,80.38
2016-02-20T09:30:55.493Z,79.82
2016-02-20T09:31:55.495Z,80.19
2016-02-20T09:32:55.498Z,79.63
2016-02-20T09:33:55.484Z,79.34
2016-02-20T09:34:55.472Z,79.44
2016-02-20T09:35:55.475Z,80
2016-02-20T09:36:55.462Z,78.96
2016-02-20T09:37:55.464Z,79.53
2016-02-20T09:38:55.467Z,78.67
2016-02-20T09:39:55.470Z,79.06
2016-02-20T09:40:55.441Z,78.11
2016-02-20T09:41:55.444Z,79.34
2016-02-20T09:42:55.447Z,77.64
2016-02-20T09:43:55.449Z,77.54
2016-02-20T09:44:55.452Z,78.2
2016-02-20T09:45:55.455Z,78.49
2016-02-20T09:46:55.441Z,78.77
2016-02-20T09:47:55.444Z,78.53
2016-02-20T09:48:55.447Z,78.11
2016-02-20T09:49:55.434Z,78.02
2016-02-20T09:50:55.437Z,77.39
2016-02-20T09:51:55.424Z,77.39
2016-02-20T09:52:55.443Z,78.43
2016-02-20T09:53:55.445Z,78.3
2016-02-20T09:54:55.416Z,77.96
2016-02-20T09:55:55.404Z,77.86
2016-02-20T09:56:55.406Z,77.25
2016-02-20T09:57:55.409Z,78.2
2016-02-20T09:58:55.396Z,78.02
2016-02-20T09:59:55.398Z,78.39
2016-02-20T10:00:55.418Z,78.87
2016-02-20T10:01:55.404Z,79.72
2016-02-20T10:02:55.392Z,78.96
2016-02-20T10:03:55.395Z,80.19
2016-02-20T10:04:55.397Z,79.63
2016-02-20T10:05:55.384Z,79.34
2016-02-20T10:06:55.386Z,81.24
2016-02-20T10:07:55.389Z,79.53
2016-02-20T10:08:55.375Z,80
2016-02-20T10:09:55.379Z,80
2016-02-20T10:10:55.381Z,80.1
2016-02-20T10:11:55.353Z,79.15
2016-02-20T10:12:55.372Z,79.06
2016-02-20T10:13:55.358Z,79.25
2016-02-20T10:14:55.361Z,80.38
2016-02-20T10:15:55.379Z,79.82
2016-02-20T10:16:55.350Z,80.57
2016-02-20T10:17:55.353Z,80.38
2016-02-20T10:18:55.356Z,81.81
2016-02-20T10:19:55.359Z,81.05
2016-02-20T10:20:55.361Z,81.14
2016-02-20T10:21:55.348Z,81.24
2016-02-20T10:22:55.352Z,79.72
2016-02-20T10:23:55.354Z,80.29
2016-02-20T10:24:55.356Z,79.82
2016-02-20T10:25:55.328Z,81.33
2016-02-20T10:26:55.331Z,80.38
2016-02-20T10:27:55.334Z,81.62
2016-02-20T10:28:55.321Z,82.18
2016-02-20T10:29:55.323Z,81.99
2016-02-20T10:30:55.154Z,82.09
2016-02-20T10:31:55.313Z,81.05
2016-02-20T10:32:55.315Z,82.28
2016-02-20T10:33:55.318Z,81.71
2016-02-20T10:34:55.320Z,81.9
2016-02-20T10:35:55.323Z,80.76
2016-02-20T10:36:55.389Z,81.71
2016-02-20T10:37:55.376Z,81.9
2016-02-20T10:38:55.284Z,81.71
2016-02-20T10:39:55.287Z,81.81
2016-02-20T10:40:55.290Z,80.48
2016-02-20T10:41:55.278Z,80.67
2016-02-20T10:42:55.280Z,82.09
2016-02-20T10:43:55.283Z,82.56
2016-02-20T10:44:55.286Z,81.52
2016-02-20T10:45:55.272Z,81.14
2016-02-20T10:46:55.275Z,82.18
2016-02-20T10:47:55.263Z,81.33
2016-02-20T10:48:55.265Z,82.09
2016-02-20T10:49:55.268Z,81.81
2016-02-20T10:50:55.255Z,81.99
2016-02-20T10:51:55.273Z,82.94
2016-02-20T10:52:55.260Z,82.75
2016-02-20T10:53:55.246Z,82.47
2016-02-20T10:54:55.249Z,82.94
2016-02-20T10:55:55.237Z,82.09
2016-02-20T10:56:55.240Z,82.28
2016-02-20T10:57:55.243Z,82.66
2016-02-20T10:58:55.245Z,82.28
2016-02-20T10:59:55.231Z,82.94
2016-02-20T11:00:55.234Z,81.99
2016-02-20T11:01:55.221Z,82.09
2016-02-20T11:02:55.224Z,83.13
2016-02-20T11:03:55.227Z,82.75
2016-02-20T11:04:55.230Z,83.32
2016-02-20T11:05:55.217Z,83.61
2016-02-20T11:06:55.220Z,83.32
2016-02-20T11:07:55.206Z,82.09
2016-02-20T11:08:55.209Z,83.42
2016-02-20T11:09:55.197Z,82.66
2016-02-20T11:10:55.199Z,82.32
2016-02-20T11:11:55.203Z,81.47
2016-02-20T11:12:55.189Z,82.13
2016-02-20T11:13:55.208Z,82.18
2016-02-20T11:14:55.179Z,83.13
2016-02-20T11:15:55.181Z,82.56
2016-02-20T11:16:55.184Z,82.94
2016-02-20T11:17:55.203Z,83.13
2016-02-20T11:18:55.252Z,82.28
2016-02-20T11:19:55.255Z,83.32
2016-02-20T11:20:55.211Z,83.04
2016-02-20T11:21:55.166Z,82.94
2016-02-20T11:22:55.169Z,82.75
2016-02-20T11:23:55.156Z,82.09
2016-02-20T11:24:55.158Z,82.37
2016-02-20T11:25:55.161Z,82.6
2016-02-20T11:26:55.164Z,82.79
2016-02-20T11:27:55.151Z,82.6
2016-02-20T11:28:55.154Z,80.99
2016-02-20T11:29:55.141Z,81.47
2016-02-20T11:30:55.144Z,80.99
2016-02-20T11:31:55.146Z,80.67
2016-02-20T11:32:55.149Z,81.05
2016-02-20T11:33:55.137Z,81.33
2016-02-20T11:34:55.154Z,81.52
2016-02-20T11:35:55.141Z,82.28
2016-02-20T11:36:55.144Z,81.81
2016-02-20T11:37:55.147Z,82.94
2016-02-20T11:38:55.118Z,82.28
2016-02-20T11:39:55.121Z,81.62
2016-02-20T11:40:55.109Z,82.09
2016-02-20T11:41:55.111Z,81.99
2016-02-20T11:42:55.114Z,81.52
2016-02-20T11:43:55.117Z,81.62
2016-02-20T11:44:55.119Z,81.62
2016-02-20T11:45:55.105Z,83.42
2016-02-20T11:46:55.108Z,82.37
2016-02-20T11:47:55.095Z,82.18
2016-02-20T11:48:55.098Z,82.42
2016-02-20T11:49:55.101Z,82.28
2016-02-20T11:50:55.103Z,82.56
2016-02-20T11:51:55.106Z,82.94
2016-02-20T11:52:55.078Z,81.81
2016-02-20T11:53:55.080Z,82.37
2016-02-20T11:54:55.083Z,81.85
2016-02-20T11:55:55.085Z,82.47
2016-02-20T11:56:55.073Z,82.94
2016-02-20T11:57:55.076Z,83.36
2016-02-20T11:58:55.109Z,82.32
2016-02-20T11:59:55.065Z,81.09
2016-02-20T12:00:55.068Z,80.9
2016-02-20T12:01:55.055Z,82.23
2016-02-20T12:02:55.057Z,81.75
2016-02-20T12:03:55.045Z,81.85
2016-02-20T12:04:55.048Z,81.37
2016-02-20T12:05:55.035Z,81.09
2016-02-20T12:06:55.038Z,81.18
2016-02-20T12:07:55.056Z,82.79
2016-02-20T12:08:55.043Z,82.04
2016-02-20T12:09:55.030Z,81.47
2016-02-20T12:10:55.032Z,81.37
2016-02-20T12:11:55.034Z,82.51
2016-02-20T12:12:55.037Z,82.51
2016-02-20T12:13:55.025Z,82.04
2016-02-20T12:14:55.012Z,82.13
2016-02-20T12:15:55.014Z,81.37
2016-02-20T12:16:55.018Z,81.37
2016-02-20T12:17:55.019Z,81.09
2016-02-20T12:18:55.008Z,82.32
2016-02-20T12:19:55.010Z,83.46
2016-02-20T12:20:55.012Z,81.85
2016-02-20T12:21:54.999Z,81.75
2016-02-20T12:22:55.002Z,82.13
2016-02-20T12:23:54.989Z,81.75
2016-02-20T12:24:54.992Z,81.94
2016-02-20T12:25:54.995Z,82.6
2016-02-20T12:26:54.982Z,83.08
2016-02-20T12:27:54.985Z,82.79
2016-02-20T12:28:54.971Z,82.98
2016-02-20T12:29:54.990Z,80.71
2016-02-20T12:30:54.992Z,81.47
2016-02-20T12:31:54.963Z,82.42
2016-02-20T12:32:54.982Z,82.51
2016-02-20T12:33:54.969Z,82.13
2016-02-20T12:34:54.972Z,81.85
2016-02-20T12:35:54.975Z,82.51
2016-02-20T12:36:54.962Z,82.32
2016-02-20T12:37:54.980Z,81.47
2016-02-20T12:38:54.983Z,82.32
2016-02-20T12:39:54.970Z,81.94
2016-02-20T12:40:54.973Z,82.32
2016-02-20T12:41:54.944Z,82.13
2016-02-20T12:42:54.947Z,83.08
2016-02-20T12:43:54.934Z,83.27
2016-02-20T12:44:54.953Z,82.13
2016-02-20T12:45:54.939Z,82.13
2016-02-20T12:46:54.942Z,81.75
2016-02-20T12:47:54.928Z,82.04
2016-02-20T12:48:54.931Z,83.17
2016-02-20T12:49:54.934Z,82.04
2016-02-20T12:50:54.922Z,81.75
2016-02-20T12:51:54.924Z,82.42
2016-02-20T12:52:54.927Z,82.98
2016-02-20T12:53:54.945Z,82.79
2016-02-20T12:54:54.932Z,83.55
2016-02-20T12:55:54.919Z,84.22